EW3770 Weather Reports


Display with metric or nautical units.
time (UTC)temp
F
wind
direction
speed
MPH
gust
MPH
rain 1hr
in
rain 24hr
in
rain mn
in
humidity
%
barometer
mb
20210515085003 62 308 2.0 5.0 0.00 0.00 0.00 55 1011.8
20210515084004 63 313 3.0 8.0 0.00 0.00 0.00 54 1011.7
20210515083004 63 337 2.0 8.0 0.00 0.00 0.00 53 1011.8
20210515082004 64 355 1.0 4.0 0.00 0.00 0.00 51 1011.7
20210515081004 64 10 2.0 4.0 0.00 0.00 0.00 46 1011.7
20210515080003 65 14 0.0 2.0 0.00 0.00 0.00 41 1011.7
20210515075003 66 14 0.0 1.0 0.00 0.00 0.00 39 1011.9
20210515074004 66 7 2.0 4.0 0.00 0.00 0.00 37 1011.9
20210515073004 66 326 4.0 12.0 0.00 0.00 0.00 36 1011.9
20210515072004 65 345 3.0 13.0 0.00 0.00 0.00 39 1011.9
20210515071004 65 57 0.0 3.0 0.00 0.00 0.00 42 1011.9
20210515070003 65 57 1.0 3.0 0.00 0.00 0.00 42 1011.9
20210515065004 65 311 1.0 6.0 0.00 0.00 0.00 42 1011.9
20210515064004 65 300 1.0 5.0 0.00 0.00 0.00 42 1011.9
20210515063004 65 272 1.0 5.0 0.00 0.00 0.00 44 1011.7
20210515062004 65 254 2.0 7.0 0.00 0.00 0.00 45 1011.6
20210515061004 65 354 1.0 4.0 0.00 0.00 0.00 46 1011.6
20210515060004 65 355 0.0 1.0 0.00 0.00 0.00 49 1011.7
20210515055003 66 0 0.0 0.0 0.00 0.00 0.00 49 1011.9
20210515054004 66 355 0.0 3.0 0.00 0.00 0.00 48 1011.9
20210515053004 66 355 0.0 3.0 0.00 0.00 0.00 46 1012.0
20210515052004 67 355 1.0 4.0 0.00 0.00 0.00 46 1012.1
20210515051003 67 2 2.0 8.0 0.00 0.00 0.00 45 1012.2
20210515050004 67 27 2.0 6.0 0.00 0.00 0.00 44 1012.3
20210515045004 67 24 2.0 6.0 0.00 0.00 0.00 42 1012.2
20210515044004 67 16 2.0 8.0 0.00 0.00 0.00 40 1012.3
20210515043004 67 355 1.0 4.0 0.00 0.00 0.00 39 1012.4
20210515042004 67 355 0.0 1.0 0.00 0.00 0.00 40 1012.3
20210515041004 67 355 0.0 2.0 0.00 0.00 0.00 39 1012.3
20210515040003 68 360 1.0 6.0 0.00 0.00 0.00 39 1012.4
20210515035004 68 7 1.0 5.0 0.00 0.00 0.00 38 1012.3
20210515034004 68 335 2.0 8.0 0.00 0.00 0.00 37 1012.1
20210515033004 68 339 2.0 6.0 0.00 0.00 0.00 37 1012.2
20210515032004 68 19 1.0 5.0 0.00 0.00 0.00 36 1012.3
20210515031004 69 327 1.0 4.0 0.00 0.00 0.00 36 1012.1
20210515030004 69 331 3.0 10.0 0.00 0.00 0.00 35 1011.7
20210515025004 70 315 4.0 11.0 0.00 0.00 0.00 34 1011.9
20210515024003 70 308 5.0 14.0 0.00 0.00 0.00 34 1011.9
20210515023004 70 313 7.0 18.0 0.00 0.00 0.00 33 1011.8
20210515022004 71 303 8.0 17.0 0.00 0.00 0.00 33 1011.8
20210515021004 71 307 8.0 17.0 0.00 0.00 0.00 33 1011.7
20210515020004 72 305 8.0 17.0 0.00 0.00 0.00 31 1011.7
20210515015003 73 304 7.0 18.0 0.00 0.00 0.00 31 1011.8
20210515014003 74 319 9.0 23.0 0.00 0.00 0.00 32 1011.2
20210515013003 75 317 9.0 22.0 0.00 0.00 0.00 31 1011.1
20210515012004 77 318 8.0 20.0 0.00 0.00 0.00 25 1010.9
20210515011004 78 332 3.0 9.0 0.00 0.00 0.00 22 1010.7
20210515010003 79 333 3.0 6.0 0.00 0.00 0.00 21 1010.5
20210515005003 80 335 3.0 9.0 0.00 0.00 0.00 21 1010.7
20210515004004 80 325 4.0 9.0 0.00 0.00 0.00 20 1010.6
20210515003004 80 333 3.0 9.0 0.00 0.00 0.00 20 1010.6
20210515002004 80 352 2.0 8.0 0.00 0.00 0.00 20 1010.6
20210515001004 81 348 3.0 9.0 0.00 0.00 0.00 20 1010.6
20210515000004 81 335 3.0 8.0 0.00 0.00 0.00 19 1010.6
20210514235004 81 4 3.0 9.0 0.00 0.00 0.00 20 1010.6
20210514234004 82 4 3.0 10.0 0.00 0.00 0.00 19 1010.8
20210514233003 82 340 4.0 10.0 0.00 0.00 0.00 18 1010.9
20210514232003 82 335 3.0 9.0 0.00 0.00 0.00 20 1011.1
20210514231004 82 14 4.0 11.0 0.00 0.00 0.00 19 1011.1
20210514230004 83 7 4.0 10.0 0.00 0.00 0.00 20 1011.2
20210514225004 83 344 4.0 11.0 0.00 0.00 0.00 20 1011.3
20210514224004 83 24 3.0 11.0 0.00 0.00 0.00 20 1011.4
20210514223003 84 10 5.0 12.0 0.00 0.00 0.00 19 1011.5
20210514222003 83 337 3.0 9.0 0.00 0.00 0.00 20 1011.7
20210514221004 83 336 3.0 10.0 0.00 0.00 0.00 20 1011.9
20210514220004 83 29 4.0 11.0 0.00 0.00 0.00 20 1012.0
20210514215004 82 26 4.0 13.0 0.00 0.00 0.00 24 1012.3
20210514214003 82 27 2.0 6.0 0.00 0.00 0.00 21 1012.4
20210514213003 83 14 2.0 9.0 0.00 0.00 0.00 20 1012.6
20210514212004 82 346 3.0 8.0 0.00 0.00 0.00 21 1012.8
20210514211004 84 30 4.0 12.0 0.00 0.00 0.00 20 1013.0
20210514210004 84 66 3.0 9.0 0.00 0.00 0.00 19 1013.1
20210514205004 84 30 1.0 9.0 0.00 0.00 0.00 19 1013.2
20210514204004 83 334 4.0 9.0 0.00 0.00 0.00 20 1013.5
20210514203003 84 352 2.0 9.0 0.00 0.00 0.00 20 1013.5
20210514202003 83 27 3.0 10.0 0.00 0.00 0.00 22 1013.6
20210514201004 83 73 2.0 8.0 0.00 0.00 0.00 20 1013.8
20210514200004 83 6 1.0 3.0 0.00 0.00 0.00 20 1014.0
20210514195004 82 15 2.0 5.0 0.00 0.00 0.00 19 1014.1
20210514194004 82 58 3.0 9.0 0.00 0.00 0.00 19 1014.3
20210514193004 82 16 3.0 7.0 0.00 0.00 0.00 20 1014.5
20210514192004 81 87 2.0 6.0 0.00 0.00 0.00 22 1014.7
20210514191003 80 110 2.0 6.0 0.00 0.00 0.00 22 1014.8
20210514190003 79 111 1.0 4.0 0.00 0.00 0.00 24 1015.0
20210514185004 78 111 2.0 4.0 0.00 0.00 0.00 22 1015.1
20210514184004 78 112 1.0 6.0 0.00 0.00 0.00 21 1015.2
20210514183004 78 123 3.0 9.0 0.00 0.00 0.00 22 1015.4
20210514182003 79 79 3.0 8.0 0.00 0.00 0.00 23 1015.4
20210514181003 79 56 2.0 7.0 0.00 0.00 0.00 23 1015.5
20210514180004 80 58 1.0 6.0 0.00 0.00 0.00 24 1015.7
20210514175004 79 31 2.0 7.0 0.00 0.00 0.00 23 1015.8
20210514174004 79 14 2.0 4.0 0.00 0.00 0.00 22 1015.8
20210514173003 79 343 2.0 8.0 0.00 0.00 0.00 23 1015.8
20210514172003 78 333 2.0 6.0 0.00 0.00 0.00 25 1015.9
20210514171004 78 347 4.0 8.0 0.00 0.00 0.00 25 1016.0
20210514170004 78 40 2.0 10.0 0.00 0.00 0.00 26 1016.0
20210514165004 78 11 2.0 5.0 0.00 0.00 0.00 24 1016.1
20210514164004 77 44 0.0 3.0 0.00 0.00 0.00 24 1016.1
20210514163003 76 44 1.0 3.0 0.00 0.00 0.00 24 1016.2
20210514162003 75 45 1.0 4.0 0.00 0.00 0.00 26 1016.3
20210514161003 75 61 1.0 4.0 0.00 0.00 0.00 26 1016.4
20210514160003 74 92 1.0 4.0 0.00 0.00 0.00 26 1016.4
20210514155003 73 96 1.0 3.0 0.00 0.00 0.00 27 1016.3
20210514154003 72 96 0.0 3.0 0.00 0.00 0.00 27 1016.2
20210514153004 72 96 1.0 3.0 0.00 0.00 0.00 27 1016.2
20210514152003 72 96 1.0 3.0 0.00 0.00 0.00 28 1016.2
20210514151004 70 119 1.0 4.0 0.00 0.00 0.00 30 1016.1
20210514150004 69 125 1.0 3.0 0.00 0.00 0.00 32 1016.0
20210514145004 68 125 1.0 3.0 0.00 0.00 0.00 33 1016.1
20210514144003 67 125 0.0 2.0 0.00 0.00 0.00 34 1016.1
20210514143003 65 125 1.0 3.0 0.00 0.00 0.00 37 1016.1
20210514142004 65 125 1.0 4.0 0.00 0.00 0.00 39 1016.1
20210514141004 65 123 1.0 4.0 0.00 0.00 0.00 40 1016.1
20210514140003 64 172 1.0 4.0 0.00 0.00 0.00 42 1016.0
20210514135004 63 216 0.0 2.0 0.00 0.00 0.00 43 1016.0
20210514134003 62 216 0.0 2.0 0.00 0.00 0.00 44 1016.0
20210514133004 61 216 0.0 2.0 0.00 0.00 0.00 44 1015.8
20210514132004 59 216 0.0 2.0 0.00 0.00 0.00 44 1015.8
20210514131004 58 216 1.0 4.0 0.00 0.00 0.00 46 1015.7
20210514130003 57 216 0.0 2.0 0.00 0.00 0.00 46 1015.6
20210514125004 57 216 0.0 1.0 0.00 0.00 0.00 47 1015.5
20210514124003 57 216 1.0 4.0 0.00 0.00 0.00 44 1015.4
20210514123004 57 216 1.0 3.0 0.00 0.00 0.00 44 1015.3
20210514122004 58 216 0.0 2.0 0.00 0.00 0.00 45 1015.4
20210514121004 59 231 0.0 2.0 0.00 0.00 0.00 41 1015.4
20210514120003 60 216 0.0 3.0 0.00 0.00 0.00 42 1015.3
20210514115004 60 216 0.0 1.0 0.00 0.00 0.00 39 1015.4
20210514114004 61 216 1.0 5.0 0.00 0.00 0.00 38 1015.3
20210514113004 62 216 1.0 6.0 0.00 0.00 0.00 37 1015.3
20210514112003 63 216 1.0 5.0 0.00 0.00 0.00 35 1015.3
20210514111004 64 210 3.0 6.0 0.00 0.00 0.00 34 1015.4
20210514110003 65 176 1.0 5.0 0.00 0.00 0.00 33 1015.4
20210514105004 66 0 0.0 0.0 0.00 0.00 0.00 32 1015.4
20210514104004 68 131 1.0 7.0 0.00 0.00 0.00 29 1015.2
20210514103004 68 92 4.0 14.0 0.00 0.00 0.00 28 1015.2
20210514102004 68 68 4.0 13.0 0.00 0.00 0.00 28 1015.5
20210514101003 67 92 5.0 11.0 0.00 0.00 0.00 28 1015.9
20210514100004 67 68 5.0 10.0 0.00 0.00 0.00 28 1015.7
20210514095004 67 25 2.0 8.0 0.00 0.00 0.00 30 1015.8
20210514094004 66 17 4.0 14.0 0.00 0.00 0.00 29 1016.0
20210514093004 65 30 2.0 10.0 0.00 0.00 0.00 32 1016.4
20210514092003 65 250 2.0 5.0 0.00 0.00 0.00 31 1016.5
20210514091004 64 100 2.0 7.0 0.00 0.00 0.00 32 1016.4
20210514090003 63 35 1.0 4.0 0.00 0.00 0.00 34 1016.1